LFATLFPM

Guest
Details From LFAT - Le Touquet Paris Plage
To LFPM - Melun Villaroche
Flight Number -
Tags generated
Created
Modified
Stats Distance 122 nm / 225 km
Max Altitude 8,700 ft / 2,652 m
Waypoints 3
Social Downloads 0
Likes 0
Share VATSIM

Download

Looking for another format? Having issues loading an existing format? Contact us
Advertisement - Login to hide

Notes

Basic altitude profile: - Ascent Rate: 1500ft/min - Ascent Speed: 110kts - Cruise Altitude: 110ft - Cruise Speed: 145kts - Descent Rate: 1500ft/min - Descent Speed: 145kts Options: - Use NATs: yes - Use PACOTS: yes - Use low airways: yes - Use high airways: yes

Route

LFAT ABB LFPM

ID Type Via Altitude Latitude Longitude Leg Dist Tot Dist Heading (true) Name
O LFAT APT - 0 ft / 0 m 50.51586˚ 1.62273˚ - 0 nm - Le Touquet Paris Plage
ABB VOR - 8,700 ft / 2,652 m 50.13514˚ 1.85469˚ 24 nm 24 nm 159° / 159° ABBEVILLE VOR-DME
O LFPM APT - 0 ft / 0 m 48.60812˚ 2.67460˚ 97 nm 121 nm 160° / 161° Melun Villaroche

Altitude Profile

Advertisement - Login to hide

LFAT

Details ICAO LFAT (LTQ)
Name Le Touquet Paris Plage
Region France
Timezone Europe/Paris (UTC+1.0)
Stats Elevation 35 ft / 11 m (AMSL)
Location 50.515857° 1.622729°
Runways 2
Magnetic Variation 0.235° E

METAR

LFAT 142130Z AUTO 28005KT 240V310 9999 RA SCT032/// BKN038/// BKN047/// ///CB 07/02 Q0990

Decode

TAF

Not found

Departure Runways

ID Width Length Bearing (true) Bearing (mag) Surface Threshold Offset Overrun Length
07 120 ft / 37 m 1,949 ft / 594 m 60.65° 60.41° Asphalt 0 ft / 0 m 0 ft / 0 m
14 131 ft / 40 m 6,050 ft / 1,844 m 133.54° 133.30° Asphalt 0 ft / 0 m 0 ft / 0 m
25 120 ft / 37 m 1,949 ft / 594 m 240.65° 240.41° Asphalt 750 ft / 229 m 0 ft / 0 m
32 131 ft / 40 m 6,050 ft / 1,844 m 313.56° 313.32° Asphalt 492 ft / 150 m 0 ft / 0 m

LFPM

Details ICAO LFPM
Name Melun Villaroche
Region France
Timezone Europe/Paris (UTC+1.0)
Stats Elevation 302 ft / 92 m (AMSL)
Location 48.608124° 2.674603°
Runways 2
Magnetic Variation 0.700° E

METAR

LFPM 142130Z AUTO 24016KT 9999 -RA BKN016 BKN021 BKN046 04/03 Q0995

Decode

TAF

Not found

Destination Runways

ID Width Length Bearing (true) Bearing (mag) Surface Threshold Offset Overrun Length
01 98 ft / 30 m 4,263 ft / 1,299 m 12.67° 11.97° Asphalt 0 ft / 0 m 656 ft / 200 m
10 148 ft / 45 m 6,455 ft / 1,968 m 103.53° 102.83° Asphalt 0 ft / 0 m 2,723 ft / 830 m
19 98 ft / 30 m 4,263 ft / 1,299 m 192.67° 191.97° Asphalt 0 ft / 0 m 2,034 ft / 620 m
28 148 ft / 45 m 6,455 ft / 1,968 m 283.55° 282.85° Asphalt 279 ft / 85 m 0 ft / 0 m

Approach Navaids

Runway Type Ident Frequency Range Bearing (true) Bearing (mag) Slope Elevation
28 Localiser MV 111.55 MHz 18 nm / 33 km 283.52° 282.82° - 302 ft / 92 m (AMSL)
28 Glidescope MV 111.55 MHz 10 nm / 19 km 283.54° 282.84° 3.00° 302 ft / 92 m (AMSL)
28 DME MV 111.55 MHz 18 nm / 33 km - - - 302 ft / 92 m (AMSL)

Popular Alternatives